Time;durP1;ratioP1;P1;durP2;ratioP2;P2;SDS_P1;SDS_P2;PMS_P1;PMS_P2;Temp;Humidity;BMP_temperature;BMP_pressure;BME280_temperature;BME280_humidity;BME280_pressure;Samples;Min_cycle;Max_cycle;Signal;HPM_P1;HPM_P2
2021/01/25 00:03:28;;;;;;;3.13;2.53;;;3.60;35.60;;;;;;10471961;28;20234;-73
2021/01/25 00:08:30;;;;;;;2.80;2.27;;;3.50;35.60;;;;;;10475963;28;20889;-73
2021/01/25 00:13:32;;;;;;;3.43;2.67;;;3.30;35.40;;;;;;10479562;28;20231;-72
2021/01/25 00:18:35;;;;;;;2.97;2.67;;;3.10;35.70;;;;;;10478820;28;20224;-73
2021/01/25 00:23:38;;;;;;;3.53;2.50;;;3.20;36.30;;;;;;10480448;28;20216;-73
2021/01/25 00:28:41;;;;;;;3.83;3.07;;;3.00;36.20;;;;;;10482176;28;20731;-72
2021/01/25 00:33:44;;;;;;;3.97;3.00;;;2.90;36.00;;;;;;10484248;28;20224;-73
2021/01/25 00:38:46;;;;;;;3.80;3.40;;;2.80;36.00;;;;;;10480438;28;20216;-72
2021/01/25 00:43:48;;;;;;;3.30;2.93;;;2.70;36.20;;;;;;10480691;28;20221;-73
2021/01/25 00:48:51;;;;;;;3.20;2.90;;;2.60;36.60;;;;;;10473338;28;20249;-73
2021/01/25 00:53:53;;;;;;;3.60;2.53;;;2.60;36.70;;;;;;10477913;28;20229;-73
2021/01/25 00:58:55;;;;;;;2.57;2.20;;;2.50;36.70;;;;;;10470137;28;20231;-73
2021/01/25 01:03:58;;;;;;;2.60;2.10;;;2.60;36.90;;;;;;10462560;28;20220;-73
2021/01/25 01:09:00;;;;;;;2.67;2.40;;;2.70;36.90;;;;;;10467940;28;20228;-73
2021/01/25 01:14:03;;;;;;;4.50;2.57;;;2.60;36.80;;;;;;10470093;28;20225;-72
2021/01/25 01:19:06;;;;;;;2.27;2.07;;;2.70;36.80;;;;;;10463103;28;20620;-72
2021/01/25 01:24:08;;;;;;;3.17;2.50;;;2.70;36.80;;;;;;10469869;28;20216;-73
2021/01/25 01:29:10;;;;;;;3.07;2.50;;;2.80;36.70;;;;;;10469255;28;20220;-72
2021/01/25 01:34:13;;;;;;;2.67;2.30;;;2.70;36.50;;;;;;10467534;28;20220;-73
2021/01/25 01:39:16;;;;;;;3.37;2.57;;;2.70;36.60;;;;;;10466870;28;20228;-72
2021/01/25 01:44:18;;;;;;;2.67;2.27;;;2.80;36.30;;;;;;10476125;28;20230;-72
2021/01/25 01:49:21;;;;;;;3.43;2.27;;;2.60;36.30;;;;;;10476135;28;20419;-73
2021/01/25 01:54:24;;;;;;;3.23;2.50;;;2.70;36.50;;;;;;10469256;28;20231;-72
2021/01/25 01:59:27;;;;;;;3.07;2.60;;;2.50;36.20;;;;;;10471766;28;20244;-73
2021/01/25 02:04:36;;;;;;;2.80;2.50;;;2.50;36.30;;;;;;10469815;28;20885;-73
2021/01/25 02:09:41;;;;;;;2.77;2.47;;;2.40;36.30;;;;;;10474387;28;20224;-73
2021/01/25 02:14:44;;;;;;;2.53;2.33;;;2.30;36.10;;;;;;10478086;28;20224;-73
2021/01/25 02:19:55;;;;;;;2.80;2.47;;;2.20;36.00;;;;;;10477767;28;20228;-73
2021/01/25 02:25:04;;;;;;;3.20;2.40;;;2.10;35.90;;;;;;10478952;28;20228;-72
2021/01/25 02:30:09;;;;;;;2.53;2.33;;;2.00;35.90;;;;;;10481540;28;20240;-72
2021/01/25 02:35:14;;;;;;;2.10;1.90;;;1.90;36.10;;;;;;10481959;28;20645;-73
2021/01/25 02:40:17;;;;;;;3.60;2.40;;;1.80;36.20;;;;;;10480117;28;20707;-72
2021/01/25 02:45:22;;;;;;;6.13;2.40;;;1.70;36.40;;;;;;10483001;28;20229;-73
2021/01/25 02:50:24;;;;;;;2.10;2.00;;;1.80;36.30;;;;;;10487966;28;20604;-73
2021/01/25 02:55:26;;;;;;;2.10;1.90;;;1.70;36.20;;;;;;10478724;28;20224;-73
2021/01/25 03:00:30;;;;;;;2.30;2.10;;;1.70;36.30;;;;;;10476287;28;20239;-72
2021/01/25 03:05:32;;;;;;;2.20;2.00;;;1.60;36.30;;;;;;10479356;28;20228;-73
2021/01/25 03:10:34;;;;;;;3.27;2.40;;;1.70;36.50;;;;;;10464960;28;20891;-73
2021/01/25 03:15:40;;;;;;;2.43;2.10;;;1.60;36.20;;;;;;10466177;28;20232;-73
2021/01/25 03:20:42;;;;;;;2.60;2.40;;;1.60;36.20;;;;;;10471073;28;20229;-73
2021/01/25 03:25:44;;;;;;;3.37;2.40;;;1.60;36.20;;;;;;10469698;28;20232;-73
2021/01/25 03:30:47;;;;;;;3.07;2.33;;;1.50;36.10;;;;;;10472608;28;20236;-73
2021/01/25 03:35:50;;;;;;;2.50;2.30;;;1.50;36.00;;;;;;10468510;28;20250;-72
2021/01/25 03:40:52;;;;;;;2.87;2.47;;;1.50;36.10;;;;;;10467760;28;20236;-73
2021/01/25 03:45:55;;;;;;;2.20;1.87;;;1.30;36.10;;;;;;10463969;28;20323;-73
2021/01/25 03:50:57;;;;;;;3.23;1.97;;;1.40;36.50;;;;;;10473674;28;20331;-72
2021/01/25 03:55:59;;;;;;;2.53;2.20;;;1.30;36.60;;;;;;10476564;28;20266;-73
2021/01/25 04:01:03;;;;;;;2.97;2.57;;;1.30;36.40;;;;;;10468753;28;20328;-72
2021/01/25 04:06:05;;;;;;;2.57;2.00;;;1.20;36.10;;;;;;10475514;28;20245;-72
2021/01/25 04:11:08;;;;;;;2.30;2.10;;;1.00;35.80;;;;;;10474742;28;20311;-72
2021/01/25 04:16:11;;;;;;;2.77;2.27;;;0.90;36.30;;;;;;10479040;28;20311;-72
2021/01/25 04:21:13;;;;;;;2.73;2.43;;;0.80;36.70;;;;;;10472223;28;20584;-72
2021/01/25 04:26:16;;;;;;;2.90;2.17;;;0.80;36.60;;;;;;10477976;28;20234;-73
2021/01/25 04:31:19;;;;;;;2.70;2.50;;;0.90;36.80;;;;;;10472916;28;20340;-73
2021/01/25 04:36:25;;;;;;;3.20;2.20;;;0.90;36.70;;;;;;10477358;28;20753;-72
2021/01/25 04:41:28;;;;;;;2.53;2.10;;;0.90;36.50;;;;;;10474302;28;20236;-73
2021/01/25 04:46:34;;;;;;;2.13;1.93;;;0.90;36.70;;;;;;10468189;28;20224;-73
2021/01/25 04:51:37;;;;;;;2.20;1.97;;;0.80;36.70;;;;;;10474707;28;20220;-72
2021/01/25 04:56:40;;;;;;;2.77;2.47;;;0.80;36.90;;;;;;10478553;28;20216;-72
2021/01/25 05:01:44;;;;;;;2.63;2.07;;;0.90;37.10;;;;;;10472630;28;20220;-73
2021/01/25 05:06:46;;;;;;;2.70;2.30;;;0.90;37.10;;;;;;10485343;28;20303;-72
2021/01/25 05:11:57;;;;;;;2.83;2.60;;;0.90;37.10;;;;;;10483151;28;20634;-72
2021/01/25 05:17:06;;;;;;;2.73;2.43;;;1.00;37.40;;;;;;10473192;28;20221;-72
2021/01/25 05:22:15;;;;;;;2.90;2.33;;;1.10;37.40;;;;;;10475028;28;20299;-72
2021/01/25 05:27:24;;;;;;;4.13;2.73;;;1.10;37.40;;;;;;10473442;28;20311;-72
2021/01/25 05:32:27;;;;;;;3.17;2.83;;;1.10;37.60;;;;;;10478186;28;20220;-73
2021/01/25 05:37:30;;;;;;;3.37;2.60;;;1.10;37.40;;;;;;10478053;28;20302;-73
2021/01/25 05:42:33;;;;;;;4.13;3.00;;;1.20;37.40;;;;;;10472847;28;20216;-72
2021/01/25 05:47:44;;;;;;;4.80;3.00;;;1.20;37.50;;;;;;10471472;28;20235;-73
2021/01/25 05:52:48;;;;;;;3.53;3.23;;;1.20;37.70;;;;;;10474729;28;20274;-73
2021/01/25 05:57:50;;;;;;;4.23;3.20;;;1.30;37.70;;;;;;10471717;28;20303;-72
2021/01/25 06:02:54;;;;;;;3.07;2.77;;;1.30;37.70;;;;;;10468750;28;20322;-72
2021/01/25 06:08:03;;;;;;;3.90;3.20;;;1.40;37.90;;;;;;10482027;28;20287;-73
2021/01/25 06:13:10;;;;;;;5.23;3.70;;;1.50;38.00;;;;;;10473653;28;20685;-72
2021/01/25 06:18:15;;;;;;;4.27;3.87;;;1.50;38.00;;;;;;10473581;28;20594;-72
2021/01/25 06:23:18;;;;;;;4.87;3.70;;;1.60;37.90;;;;;;10469126;28;20720;-72
2021/01/25 06:28:20;;;;;;;4.50;3.93;;;1.60;37.90;;;;;;10483356;28;20323;-72
2021/01/25 06:33:24;;;;;;;5.60;4.20;;;1.60;37.80;;;;;;10472116;28;20224;-72
2021/01/25 06:38:26;;;;;;;4.90;4.10;;;1.70;37.90;;;;;;10477540;28;20228;-73
2021/01/25 06:43:28;;;;;;;6.80;5.47;;;1.70;37.80;;;;;;10482480;28;20299;-72
2021/01/25 06:48:34;;;;;;;4.67;4.17;;;1.70;37.90;;;;;;10473320;28;20240;-73
2021/01/25 06:53:37;;;;;;;4.87;3.67;;;1.70;37.90;;;;;;10472404;28;20228;-73
2021/01/25 06:58:46;;;;;;;3.57;3.03;;;1.60;37.90;;;;;;10476251;28;20233;-73
2021/01/25 07:03:56;;;;;;;3.60;2.83;;;1.70;38.30;;;;;;10476497;28;20224;-73
2021/01/25 07:09:04;;;;;;;3.33;3.03;;;1.60;38.40;;;;;;10472837;28;20227;-73
2021/01/25 07:14:07;;;;;;;5.77;3.87;;;1.60;38.40;;;;;;10479585;28;20240;-73
2021/01/25 07:19:12;;;;;;;3.17;2.90;;;1.60;38.30;;;;;;10469546;28;20229;-72
2021/01/25 07:24:20;;;;;;;7.47;4.53;;;1.70;38.50;;;;;;10480511;28;20603;-72
2021/01/25 07:29:24;;;;;;;6.20;5.27;;;1.80;38.60;;;;;;10462149;28;20275;-73
2021/01/25 07:34:30;;;;;;;6.50;4.37;;;1.80;38.70;;;;;;10470694;28;20232;-73
2021/01/25 07:39:32;;;;;;;4.03;3.07;;;1.80;38.80;;;;;;10474289;28;20315;-73
2021/01/25 07:44:35;;;;;;;6.17;3.63;;;1.90;38.70;;;;;;10463515;28;20697;-73
2021/01/25 07:49:38;;;;;;;3.87;2.80;;;2.00;38.80;;;;;;10474247;28;20228;-73
2021/01/25 07:54:40;;;;;;;4.17;3.20;;;2.10;38.80;;;;;;10476123;28;20235;-73
2021/01/25 07:59:42;;;;;;;3.47;3.17;;;2.20;38.60;;;;;;10483261;28;20239;-73
2021/01/25 08:04:47;;;;;;;3.57;3.27;;;2.20;38.70;;;;;;10479697;28;20227;-73
2021/01/25 08:09:49;;;;;;;3.27;2.97;;;2.30;38.70;;;;;;10477917;28;20229;-74
2021/01/25 08:15:00;;;;;;;4.20;3.70;;;2.30;38.60;;;;;;10479014;28;20730;-73
2021/01/25 08:20:09;;;;;;;3.67;3.10;;;2.40;38.70;;;;;;10467561;28;20316;-72
2021/01/25 08:25:17;;;;;;;4.63;3.47;;;2.50;38.70;;;;;;10471566;28;20236;-73
2021/01/25 08:30:32;;;;;;;3.63;3.07;;;2.50;38.80;;;;;;10483536;27;20522;-72
2021/01/25 08:35:38;;;;;;;3.63;3.13;;;2.60;38.90;;;;;;10474864;27;20229;-72
2021/01/25 08:40:41;;;;;;;3.97;3.47;;;2.60;39.50;;;;;;10455583;28;20232;-69
2021/01/25 08:45:44;;;;;;;4.03;3.20;;;2.60;38.80;;;;;;10454607;28;20824;-69
2021/01/25 08:50:47;;;;;;;3.57;3.00;;;2.70;38.90;;;;;;10442150;28;20300;-69
2021/01/25 08:55:49;;;;;;;3.67;2.83;;;2.80;39.00;;;;;;10452673;28;20588;-69
2021/01/25 09:00:53;;;;;;;3.40;3.10;;;2.80;38.90;;;;;;10441834;28;20219;-69
2021/01/25 09:05:56;;;;;;;3.30;2.90;;;2.80;39.00;;;;;;10458442;28;20681;-69
2021/01/25 09:11:02;;;;;;;3.23;2.80;;;2.90;39.10;;;;;;10452484;28;20681;-70
2021/01/25 09:16:05;;;;;;;2.60;2.40;;;3.00;39.10;;;;;;10442564;28;20761;-69
2021/01/25 09:21:07;;;;;;;2.67;2.47;;;3.00;39.10;;;;;;10450756;28;20236;-70
2021/01/25 09:26:10;;;;;;;2.83;2.53;;;3.10;39.10;;;;;;10440824;28;20229;-70
2021/01/25 09:31:14;;;;;;;3.00;2.67;;;3.10;38.80;;;;;;10452831;28;20217;-69
2021/01/25 09:36:16;;;;;;;2.70;2.50;;;3.10;38.90;;;;;;10456803;28;20231;-70
2021/01/25 09:41:38;;;;;;;2.97;2.77;;;3.10;38.90;;;;;;10422243;28;20252;-69
2021/01/25 09:46:42;;;;;;;4.20;2.20;;;3.10;39.10;;;;;;10416119;28;20749;-67
2021/01/25 09:51:46;;;;;;;5.60;4.73;;;3.10;40.40;;;;;;10414245;28;20233;-70
2021/01/25 09:56:49;;;;;;;3.53;3.23;;;3.20;40.10;;;;;;10422195;28;20234;-70
2021/01/25 10:01:53;;;;;;;3.60;3.30;;;3.30;39.60;;;;;;10420420;28;20229;-70
2021/01/25 10:06:55;;;;;;;3.37;2.87;;;3.40;39.30;;;;;;10425498;28;20237;-70
2021/01/25 10:11:57;;;;;;;3.60;2.63;;;3.40;39.20;;;;;;10416919;28;20233;-70
2021/01/25 10:17:00;;;;;;;2.80;2.60;;;3.40;39.10;;;;;;10414248;28;20234;-70
2021/01/25 10:22:03;;;;;;;2.70;2.50;;;3.50;39.30;;;;;;10418274;28;20701;-70
2021/01/25 10:27:06;;;;;;;3.33;3.03;;;3.50;39.30;;;;;;10422187;28;20235;-70
2021/01/25 10:32:09;;;;;;;3.17;2.87;;;3.60;39.40;;;;;;10411726;28;20320;-70
2021/01/25 10:37:12;;;;;;;2.97;2.70;;;3.70;39.40;;;;;;10422912;28;20941;-70
2021/01/25 10:42:14;;;;;;;2.83;2.63;;;3.70;39.30;;;;;;10411411;28;20230;-70
2021/01/25 10:47:19;;;;;;;2.77;2.57;;;3.80;39.30;;;;;;10416646;28;20238;-70
2021/01/25 10:52:21;;;;;;;4.97;2.87;;;3.80;39.30;;;;;;10416336;28;20271;-70
2021/01/25 10:57:23;;;;;;;2.63;2.43;;;3.90;39.30;;;;;;10417762;28;20283;-70
2021/01/25 11:02:26;;;;;;;4.27;2.73;;;3.90;39.10;;;;;;10410304;28;20236;-70
2021/01/25 11:07:29;;;;;;;2.90;2.70;;;3.90;39.40;;;;;;10420682;28;20237;-70
2021/01/25 11:12:31;;;;;;;3.27;2.97;;;3.90;39.20;;;;;;10409434;28;20242;-70
2021/01/25 11:17:34;;;;;;;3.20;2.90;;;4.00;39.30;;;;;;10410674;28;20217;-70
2021/01/25 11:22:36;;;;;;;4.07;3.67;;;4.00;39.40;;;;;;10410190;28;20220;-69
2021/01/25 11:27:39;;;;;;;4.03;3.63;;;4.10;39.50;;;;;;10409068;28;20296;-69
2021/01/25 11:32:42;;;;;;;3.73;3.43;;;4.10;39.40;;;;;;10416319;28;20575;-69
2021/01/25 11:37:44;;;;;;;3.97;3.47;;;4.20;39.30;;;;;;10412412;28;20225;-69
2021/01/25 11:42:47;;;;;;;5.23;3.73;;;4.30;39.40;;;;;;10420805;28;20231;-69
2021/01/25 11:47:50;;;;;;;2.80;2.60;;;4.40;39.40;;;;;;10411826;28;20229;-68
2021/01/25 11:52:52;;;;;;;3.77;3.47;;;4.40;41.00;;;;;;10407169;28;20237;-68
2021/01/25 11:57:54;;;;;;;3.70;3.40;;;4.50;40.50;;;;;;10423763;28;20608;-68
2021/01/25 12:02:57;;;;;;;3.30;3.00;;;4.60;40.00;;;;;;10417631;28;20231;-68
2021/01/25 12:08:00;;;;;;;3.00;2.80;;;4.70;39.80;;;;;;10415773;28;20595;-68
2021/01/25 12:13:03;;;;;;;4.70;4.20;;;4.80;39.70;;;;;;10414618;28;20736;-69
2021/01/25 12:18:06;;;;;;;3.27;3.03;;;4.80;39.60;;;;;;10422211;28;20229;-69
2021/01/25 12:23:08;;;;;;;3.80;3.50;;;4.90;39.50;;;;;;10419187;28;20283;-68
2021/01/25 12:28:10;;;;;;;3.63;3.33;;;4.90;39.30;;;;;;10417366;28;20240;-68
2021/01/25 12:33:13;;;;;;;3.90;3.53;;;4.90;39.40;;;;;;10411394;28;20228;-69
2021/01/25 12:38:15;;;;;;;3.73;3.43;;;4.90;39.40;;;;;;10420127;28;20225;-68
2021/01/25 12:43:18;;;;;;;3.90;3.50;;;4.90;39.40;;;;;;10411112;28;20222;-69
2021/01/25 12:48:21;;;;;;;3.70;3.40;;;4.90;39.30;;;;;;10415238;28;20218;-69
2021/01/25 12:53:23;;;;;;;3.73;3.30;;;4.90;39.30;;;;;;10410145;28;20308;-68
2021/01/25 12:58:25;;;;;;;5.10;3.70;;;4.90;39.10;;;;;;10408011;28;20229;-69
2021/01/25 13:03:28;;;;;;;4.37;4.00;;;4.90;39.10;;;;;;10421292;28;20226;-69
2021/01/25 13:08:31;;;;;;;4.50;4.10;;;4.80;39.10;;;;;;10424336;28;20228;-69
2021/01/25 13:13:33;;;;;;;4.07;3.77;;;4.80;39.20;;;;;;10427549;28;20660;-68
2021/01/25 13:18:37;;;;;;;4.30;4.00;;;4.80;39.20;;;;;;10423858;28;20236;-68
2021/01/25 13:23:39;;;;;;;5.00;4.60;;;4.80;39.20;;;;;;10425603;28;20245;-68
2021/01/25 13:28:41;;;;;;;4.73;4.27;;;4.80;39.20;;;;;;10423554;28;20717;-68
2021/01/25 13:33:44;;;;;;;4.53;4.07;;;4.80;39.00;;;;;;10412498;28;20725;-68
2021/01/25 13:38:47;;;;;;;4.80;4.40;;;4.70;38.90;;;;;;10427214;28;20729;-68
2021/01/25 13:43:49;;;;;;;4.83;4.43;;;4.70;39.10;;;;;;10417941;28;20537;-68
2021/01/25 13:48:52;;;;;;;4.33;4.03;;;4.60;39.00;;;;;;10428296;28;20240;-68
2021/01/25 13:53:54;;;;;;;4.50;4.10;;;4.60;39.10;;;;;;10430486;28;20295;-68
2021/01/25 13:58:56;;;;;;;4.83;4.43;;;4.50;39.30;;;;;;10428467;28;20240;-67
2021/01/25 14:04:00;;;;;;;5.37;4.77;;;4.50;40.30;;;;;;10426828;28;20229;-67
2021/01/25 14:09:03;;;;;;;4.87;4.40;;;4.50;39.50;;;;;;10416406;28;20217;-67
2021/01/25 14:14:05;;;;;;;6.13;4.53;;;4.50;39.40;;;;;;10421699;28;20217;-67
2021/01/25 14:19:09;;;;;;;4.93;4.57;;;4.50;39.30;;;;;;10419142;28;20599;-67
2021/01/25 14:24:13;;;;;;;5.77;4.50;;;4.50;39.40;;;;;;10420172;28;20232;-67
2021/01/25 14:29:15;;;;;;;5.30;4.80;;;4.50;39.30;;;;;;10417071;28;20319;-67
2021/01/25 14:34:21;;;;;;;5.43;4.93;;;4.50;39.40;;;;;;10420735;28;20233;-67
2021/01/25 14:39:23;;;;;;;5.40;4.90;;;4.50;39.40;;;;;;10411639;28;20251;-69
2021/01/25 14:44:26;;;;;;;5.40;4.90;;;4.50;39.40;;;;;;10414833;28;20229;-69
2021/01/25 14:49:29;;;;;;;5.33;4.93;;;4.40;39.40;;;;;;10427833;28;20236;-69
2021/01/25 14:54:31;;;;;;;5.87;5.37;;;4.40;39.40;;;;;;10414857;28;20280;-69
2021/01/25 14:59:34;;;;;;;5.57;5.07;;;4.40;39.50;;;;;;10426909;28;20699;-69
2021/01/25 15:04:38;;;;;;;5.67;5.13;;;4.40;39.50;;;;;;10423619;28;20232;-70
2021/01/25 15:09:40;;;;;;;5.73;5.27;;;4.40;39.60;;;;;;10423381;28;20244;-70
2021/01/25 15:14:43;;;;;;;6.60;6.00;;;4.50;39.80;;;;;;10421491;28;20303;-69
2021/01/25 15:19:46;;;;;;;6.03;5.43;;;4.50;39.80;;;;;;10422679;28;20241;-70
2021/01/25 15:24:48;;;;;;;6.10;5.57;;;4.60;39.90;;;;;;10440227;28;20225;-71
2021/01/25 15:29:50;;;;;;;6.43;5.83;;;4.60;40.00;;;;;;10427925;28;20718;-72
2021/01/25 15:34:53;;;;;;;6.33;5.73;;;4.70;39.80;;;;;;10423049;28;20252;-72
2021/01/25 15:39:55;;;;;;;5.87;5.40;;;4.60;39.80;;;;;;10439020;28;20815;-71
2021/01/25 15:44:58;;;;;;;7.83;6.00;;;4.70;39.80;;;;;;10432855;28;20221;-72
2021/01/25 15:50:01;;;;;;;6.93;6.33;;;4.80;39.90;;;;;;10431051;28;20230;-72
2021/01/25 15:55:04;;;;;;;7.70;7.00;;;4.80;39.80;;;;;;10436611;28;20307;-71
2021/01/25 16:00:11;;;;;;;11.97;9.17;;;4.80;39.80;;;;;;10430143;28;20689;-71
2021/01/25 16:05:15;;;;;;;8.27;7.37;;;4.80;39.80;;;;;;10455036;28;20294;-72
2021/01/25 16:10:19;;;;;;;7.57;6.87;;;4.80;39.80;;;;;;10466945;28;20595;-72
2021/01/25 16:15:21;;;;;;;7.03;6.33;;;4.80;39.70;;;;;;10465895;28;20250;-72
2021/01/25 16:20:25;;;;;;;6.97;6.37;;;4.80;39.70;;;;;;10476092;28;20590;-73
2021/01/25 16:25:27;;;;;;;6.90;6.30;;;4.80;39.70;;;;;;10485168;28;20228;-72
2021/01/25 16:30:30;;;;;;;6.90;6.20;;;4.80;39.60;;;;;;10483144;28;20232;-73
2021/01/25 16:35:33;;;;;;;6.97;6.27;;;4.80;39.60;;;;;;10474038;28;20229;-73
2021/01/25 16:40:35;;;;;;;6.83;6.23;;;4.90;39.70;;;;;;10465192;28;20226;-73
2021/01/25 16:45:38;;;;;;;9.87;8.90;;;4.90;39.60;;;;;;10466348;27;20229;-73
2021/01/25 16:50:41;;;;;;;11.27;10.13;;;4.90;39.60;;;;;;10463549;27;20243;-73
2021/01/25 16:55:45;;;;;;;12.47;11.13;;;4.80;39.60;;;;;;10469558;28;20229;-73
2021/01/25 17:00:48;;;;;;;11.40;10.37;;;4.80;39.60;;;;;;10464180;28;20237;-73
2021/01/25 17:05:54;;;;;;;9.93;8.90;;;4.80;39.50;;;;;;10482561;28;20311;-74
2021/01/25 17:10:56;;;;;;;10.93;9.77;;;4.70;39.50;;;;;;10487302;28;20755;-74
2021/01/25 17:15:58;;;;;;;12.13;11.00;;;4.60;39.60;;;;;;10476730;28;20231;-73
2021/01/25 17:21:01;;;;;;;19.03;17.13;;;4.60;39.90;;;;;;10471163;28;20307;-73
2021/01/25 17:26:03;;;;;;;14.83;13.33;;;4.60;40.10;;;;;;10488784;28;20227;-71
2021/01/25 17:31:06;;;;;;;13.60;12.20;;;4.60;40.10;;;;;;10479413;28;20583;-73
2021/01/25 17:36:10;;;;;;;14.60;13.10;;;4.60;40.40;;;;;;10475116;28;20257;-73
2021/01/25 17:41:12;;;;;;;67.13;56.43;;;4.60;40.60;;;;;;10482102;28;20221;-74
2021/01/25 17:46:15;;;;;;;39.73;35.13;;;4.60;40.40;;;;;;10486813;28;20224;-73
2021/01/25 17:51:18;;;;;;;17.80;15.60;;;4.70;40.70;;;;;;10489065;28;20228;-74
2021/01/25 17:56:20;;;;;;;12.03;10.83;;;4.70;40.80;;;;;;10476432;28;20228;-71
2021/01/25 18:01:22;;;;;;;9.70;8.73;;;4.80;40.60;;;;;;10488430;28;20230;-74
2021/01/25 18:06:25;;;;;;;10.33;9.40;;;4.80;40.30;;;;;;10483474;28;20719;-71
2021/01/25 18:11:28;;;;;;;9.07;8.27;;;4.90;40.50;;;;;;10479715;28;20239;-73
2021/01/25 18:16:30;;;;;;;9.40;8.47;;;4.90;40.40;;;;;;10476060;28;20224;-74
2021/01/25 18:21:33;;;;;;;11.57;9.63;;;4.90;40.40;;;;;;10474469;28;20840;-71
2021/01/25 18:26:35;;;;;;;8.17;7.37;;;5.00;40.50;;;;;;10483492;28;20233;-74
2021/01/25 18:31:40;;;;;;;10.43;9.33;;;5.00;40.40;;;;;;10479516;28;20707;-74
2021/01/25 18:36:45;;;;;;;11.47;10.33;;;5.00;40.40;;;;;;10477757;28;20310;-70
2021/01/25 18:41:47;;;;;;;12.53;10.40;;;5.00;40.00;;;;;;10484483;28;20232;-70
2021/01/25 18:46:49;;;;;;;12.90;11.53;;;5.00;40.10;;;;;;10475971;28;20606;-70
2021/01/25 18:51:53;;;;;;;11.20;10.20;;;4.90;40.00;;;;;;10467714;28;20233;-74
2021/01/25 18:56:55;;;;;;;13.73;12.43;;;4.90;40.20;;;;;;10471075;28;20733;-73
2021/01/25 19:01:57;;;;;;;15.13;13.73;;;4.80;40.10;;;;;;10478874;28;20221;-74
2021/01/25 19:07:01;;;;;;;16.60;14.83;;;4.80;40.30;;;;;;10480012;28;20228;-73
2021/01/25 19:12:04;;;;;;;21.23;18.83;;;4.70;40.50;;;;;;10469672;28;20231;-73
2021/01/25 19:17:06;;;;;;;18.37;16.00;;;4.70;40.50;;;;;;10473163;28;20713;-73
2021/01/25 19:22:11;;;;;;;18.20;16.30;;;4.70;40.50;;;;;;10473892;28;20243;-70
2021/01/25 19:27:13;;;;;;;13.17;12.00;;;4.70;40.80;;;;;;10476016;28;20230;-73
2021/01/25 19:32:15;;;;;;;13.20;12.00;;;4.70;40.80;;;;;;10479200;28;20228;-70
2021/01/25 19:37:19;;;;;;;12.40;11.30;;;4.70;40.80;;;;;;10473883;28;20255;-73
2021/01/25 19:42:21;;;;;;;13.43;12.23;;;4.70;40.90;;;;;;10468362;28;20724;-73
2021/01/25 19:47:23;;;;;;;13.30;12.10;;;4.80;40.80;;;;;;10471999;28;20232;-70
2021/01/25 19:52:27;;;;;;;11.70;10.60;;;4.80;40.70;;;;;;10472676;28;20791;-70
2021/01/25 19:57:30;;;;;;;12.07;11.00;;;4.80;41.00;;;;;;10465610;28;20225;-70
2021/01/25 20:02:33;;;;;;;10.77;9.87;;;4.80;40.90;;;;;;10464810;28;20224;-70
2021/01/25 20:07:36;;;;;;;13.70;12.50;;;4.80;40.80;;;;;;10473728;28;21141;-73
2021/01/25 20:12:38;;;;;;;14.07;12.77;;;4.80;41.00;;;;;;10470352;28;20315;-73
2021/01/25 20:17:41;;;;;;;16.53;15.07;;;4.80;41.10;;;;;;10468715;28;20760;-74
2021/01/25 20:22:46;;;;;;;15.43;13.83;;;4.80;41.30;;;;;;10465885;28;20235;-74
2021/01/25 20:27:50;;;;;;;13.00;11.80;;;4.70;41.50;;;;;;10467638;28;20266;-73
2021/01/25 20:32:52;;;;;;;13.60;12.20;;;4.70;41.30;;;;;;10473080;28;20391;-73
2021/01/25 20:37:56;;;;;;;12.70;11.50;;;4.60;41.40;;;;;;10473446;28;20323;-74
2021/01/25 20:42:59;;;;;;;12.50;11.43;;;4.60;41.50;;;;;;10468048;28;20307;-73
2021/01/25 20:48:03;;;;;;;13.33;12.13;;;4.60;42.20;;;;;;10464321;28;20220;-74
2021/01/25 20:53:08;;;;;;;12.83;11.73;;;4.60;41.60;;;;;;10466640;28;20739;-71
2021/01/25 20:58:11;;;;;;;10.77;9.87;;;4.60;41.70;;;;;;10466041;28;20289;-70
2021/01/25 21:03:16;;;;;;;10.00;9.10;;;4.60;42.10;;;;;;10465163;28;20308;-70
2021/01/25 21:08:20;;;;;;;10.20;9.37;;;4.60;41.40;;;;;;10468450;28;20238;-70
2021/01/25 21:13:23;;;;;;;10.70;9.70;;;4.60;41.50;;;;;;10468000;28;20266;-70
2021/01/25 21:18:26;;;;;;;9.77;8.87;;;4.60;41.40;;;;;;10466524;28;20232;-70
2021/01/25 21:23:29;;;;;;;10.70;9.70;;;4.60;41.20;;;;;;10462875;28;21507;-70
2021/01/25 21:28:32;;;;;;;9.83;8.93;;;4.50;41.20;;;;;;10460412;28;20229;-69
2021/01/25 21:33:34;;;;;;;9.00;8.20;;;4.60;41.30;;;;;;10451091;28;20235;-70
2021/01/25 21:38:41;;;;;;;8.90;8.10;;;4.60;41.30;;;;;;10462353;28;20224;-70
2021/01/25 21:43:44;;;;;;;9.47;8.57;;;4.60;41.20;;;;;;10461825;28;20221;-70
2021/01/25 21:48:50;;;;;;;9.53;8.63;;;4.60;41.20;;;;;;10462669;28;20271;-70
2021/01/25 21:53:53;;;;;;;9.43;8.60;;;4.60;41.00;;;;;;10473041;28;20308;-70
2021/01/25 21:58:56;;;;;;;9.50;8.60;;;4.60;41.20;;;;;;10463223;28;20240;-70
2021/01/25 22:03:58;;;;;;;10.43;9.43;;;4.60;41.10;;;;;;10457205;28;20228;-70
2021/01/25 22:09:01;;;;;;;9.27;8.47;;;4.60;41.70;;;;;;10464142;28;20331;-70
2021/01/25 22:14:03;;;;;;;10.00;9.10;;;4.60;41.20;;;;;;10472258;28;20229;-70
2021/01/25 22:19:05;;;;;;;9.53;8.63;;;4.60;41.20;;;;;;10466107;28;20320;-70
2021/01/25 22:24:09;;;;;;;8.70;7.97;;;4.60;41.20;;;;;;10466097;28;20227;-70
2021/01/25 22:29:12;;;;;;;8.37;7.53;;;4.60;41.20;;;;;;10459523;28;20724;-70
2021/01/25 22:34:14;;;;;;;8.83;8.03;;;4.70;41.20;;;;;;10463121;28;20315;-70
2021/01/25 22:39:17;;;;;;;8.70;7.93;;;4.70;41.20;;;;;;10462966;28;20231;-70
2021/01/25 22:44:20;;;;;;;9.83;8.93;;;4.70;41.20;;;;;;10462241;28;20587;-70
2021/01/25 22:49:22;;;;;;;8.27;7.47;;;4.70;41.00;;;;;;10463350;28;20236;-70
2021/01/25 22:54:25;;;;;;;8.70;7.90;;;4.70;41.20;;;;;;10464291;28;20233;-70
2021/01/25 22:59:27;;;;;;;9.10;8.30;;;4.70;41.20;;;;;;10466287;28;20598;-70
2021/01/25 23:04:30;;;;;;;8.40;7.70;;;4.70;41.10;;;;;;10464134;28;20648;-70
2021/01/25 23:09:33;;;;;;;8.93;8.13;;;4.70;41.20;;;;;;10463819;28;20617;-70
2021/01/25 23:14:36;;;;;;;8.57;7.80;;;4.70;41.30;;;;;;10466591;28;20235;-70
2021/01/25 23:19:38;;;;;;;8.37;7.60;;;4.70;41.20;;;;;;10463349;28;20767;-70
2021/01/25 23:24:41;;;;;;;7.23;6.63;;;4.70;41.20;;;;;;10467619;28;20229;-70
2021/01/25 23:29:44;;;;;;;7.03;6.43;;;4.60;41.30;;;;;;10459185;28;20232;-70
2021/01/25 23:34:46;;;;;;;6.97;6.27;;;4.70;41.20;;;;;;10462493;28;20237;-70
2021/01/25 23:39:49;;;;;;;6.87;6.27;;;4.70;41.20;;;;;;10461609;28;20247;-69
2021/01/25 23:44:51;;;;;;;7.60;6.90;;;4.60;41.10;;;;;;10459204;28;20235;-70
2021/01/25 23:49:53;;;;;;;8.80;8.00;;;4.70;41.30;;;;;;10453263;28;20750;-70
2021/01/25 23:54:56;;;;;;;8.87;8.07;;;4.70;41.20;;;;;;10462009;28;20237;-70
2021/01/25 23:59:59;;;;;;;9.90;9.00;;;4.70;41.20;;;;;;10459023;28;20229;-70
